Time,TemperatureF,DewpointF,PressureIn,WindDirection,WindDirectionDegrees,WindSpeedMPH,WindSpeedGustMPH,Humidity,HourlyPrecipIn,Conditions,Clouds,dailyrainin,SoftwareType,DateUTC
2013-08-04 00:02:00,76.0,75.0,30.01,WSW,243,0.0,1.0,96,0.00,,,0.00,,2013-08-04 05:02:00,
2013-08-04 00:12:00,76.0,75.0,30.01,WSW,243,0.0,1.0,96,0.00,,,0.00,,2013-08-04 05:12:00,
2013-08-04 00:22:00,76.0,75.0,30.01,WSW,243,0.0,1.0,96,0.00,,,0.00,,2013-08-04 05:22:00,
2013-08-04 00:32:00,76.0,75.0,30.01,WSW,243,0.0,0.0,96,0.00,,,0.00,,2013-08-04 05:32:00,
2013-08-04 00:42:00,76.0,75.0,30.01,WSW,243,0.0,0.0,96,0.00,,,0.00,,2013-08-04 05:42:00,
2013-08-04 00:52:00,76.0,75.0,30.01,WSW,243,0.0,0.0,96,0.00,,,0.00,,2013-08-04 05:52:00,
2013-08-04 01:02:00,75.0,74.0,30.00,WSW,243,0.0,0.0,96,0.00,,,0.00,,2013-08-04 06:02:00,
2013-08-04 01:12:00,75.0,74.0,30.00,WSW,243,0.0,0.0,96,0.00,,,0.00,,2013-08-04 06:12:00,
2013-08-04 01:22:00,75.0,74.0,30.00,WSW,243,0.0,0.0,97,0.00,,,0.00,,2013-08-04 06:22:00,
2013-08-04 01:32:00,75.0,74.0,30.00,WSW,243,0.0,0.0,97,0.00,,,0.00,,2013-08-04 06:32:00,
2013-08-04 01:43:00,75.0,74.0,29.99,WSW,243,0.0,1.0,97,0.00,,,0.00,,2013-08-04 06:43:00,
2013-08-04 01:52:00,75.0,74.0,29.99,WSW,243,0.0,0.0,97,0.00,,,0.00,,2013-08-04 06:52:00,
2013-08-04 02:02:00,75.0,74.0,29.99,WSW,243,0.0,0.0,97,0.00,,,0.00,,2013-08-04 07:02:00,
2013-08-04 02:12:00,75.0,74.0,29.98,WSW,243,0.0,0.0,97,0.00,,,0.00,,2013-08-04 07:12:00,
2013-08-04 02:22:00,75.0,74.0,29.98,West,271,0.0,1.0,97,0.00,,,0.00,,2013-08-04 07:22:00,
2013-08-04 02:33:00,75.0,74.0,29.98,West,271,0.0,1.0,97,0.00,,,0.00,,2013-08-04 07:33:00,
2013-08-04 02:43:00,75.0,74.0,29.98,West,270,0.0,2.0,97,0.00,,,0.00,,2013-08-04 07:43:00,
2013-08-04 02:53:00,75.0,74.0,29.98,WSW,257,0.0,1.0,97,0.00,,,0.00,,2013-08-04 07:53:00,
2013-08-04 03:02:00,75.0,74.0,29.98,WSW,257,0.0,1.0,97,0.00,,,0.00,,2013-08-04 08:02:00,
2013-08-04 03:12:00,75.0,74.0,29.98,West,280,0.0,1.0,97,0.00,,,0.00,,2013-08-04 08:12:00,
2013-08-04 03:23:00,75.0,74.0,29.98,West,280,0.0,1.0,97,0.00,,,0.00,,2013-08-04 08:23:00,
2013-08-04 03:33:00,75.0,74.0,29.98,West,280,0.0,1.0,97,0.00,,,0.00,,2013-08-04 08:33:00,
2013-08-04 03:43:00,75.0,74.0,29.98,West,280,0.0,0.0,97,0.00,,,0.00,,2013-08-04 08:43:00,
2013-08-04 03:53:00,75.0,74.0,29.98,WNW,285,0.0,1.0,98,0.00,,,0.00,,2013-08-04 08:53:00,
2013-08-04 04:02:00,75.0,74.0,29.98,WNW,285,0.0,1.0,98,0.00,,,0.00,,2013-08-04 09:02:00,
2013-08-04 04:12:00,75.0,74.0,29.98,WNW,282,0.0,1.0,97,0.00,,,0.00,,2013-08-04 09:12:00,
2013-08-04 04:22:00,75.0,74.0,29.98,WNW,282,0.0,2.0,98,0.00,,,0.00,,2013-08-04 09:22:00,
2013-08-04 04:32:00,75.0,74.0,29.98,WNW,282,0.0,2.0,98,0.00,,,0.00,,2013-08-04 09:32:00,
2013-08-04 04:43:00,75.0,74.0,29.98,WNW,283,0.0,1.0,97,0.00,,,0.00,,2013-08-04 09:43:00,
2013-08-04 04:52:00,74.0,73.0,29.98,WNW,283,0.0,0.0,97,0.00,,,0.00,,2013-08-04 09:52:00,
2013-08-04 05:02:00,74.0,73.0,29.98,WNW,283,0.0,0.0,97,0.00,,,0.00,,2013-08-04 10:02:00,
2013-08-04 05:12:00,74.0,73.0,29.98,WNW,283,0.0,0.0,97,0.00,,,0.00,,2013-08-04 10:12:00,
2013-08-04 05:22:00,74.0,73.0,29.98,WNW,283,0.0,0.0,98,0.00,,,0.00,,2013-08-04 10:22:00,
2013-08-04 05:32:00,74.0,73.0,29.98,WNW,283,0.0,0.0,98,0.00,,,0.00,,2013-08-04 10:32:00,
2013-08-04 05:42:00,73.0,72.0,29.98,WNW,283,0.0,0.0,98,0.00,,,0.00,,2013-08-04 10:42:00,
2013-08-04 05:53:00,74.0,73.0,29.98,WNW,283,0.0,0.0,98,0.00,,,0.00,,2013-08-04 10:53:00,
2013-08-04 06:02:00,74.0,73.0,29.98,WNW,283,0.0,0.0,98,0.00,,,0.00,,2013-08-04 11:02:00,
2013-08-04 06:12:00,74.0,73.0,29.98,West,281,0.0,1.0,98,0.00,,,0.00,,2013-08-04 11:12:00,
2013-08-04 06:22:00,74.0,73.0,29.98,West,281,0.0,0.0,98,0.00,,,0.00,,2013-08-04 11:22:00,
2013-08-04 06:32:00,74.0,73.0,29.98,West,281,0.0,0.0,98,0.00,,,0.00,,2013-08-04 11:32:00,
2013-08-04 06:42:00,74.0,73.0,29.99,WNW,282,0.0,3.0,98,0.00,,,0.00,,2013-08-04 11:42:00,
2013-08-04 06:53:00,74.0,73.0,29.99,WNW,283,0.0,3.0,98,0.00,,,0.00,,2013-08-04 11:53:00,
2013-08-04 07:02:00,74.0,73.0,29.99,WNW,283,0.0,3.0,98,0.00,,,0.00,,2013-08-04 12:02:00,
2013-08-04 07:12:00,74.0,73.0,29.99,WNW,283,0.0,2.0,98,0.00,,,0.00,,2013-08-04 12:12:00,
2013-08-04 07:22:00,75.0,74.0,30.00,WNW,283,0.0,1.0,98,0.00,,,0.00,,2013-08-04 12:22:00,
2013-08-04 07:32:00,75.0,74.0,30.00,WNW,283,0.0,1.0,98,0.00,,,0.00,,2013-08-04 12:32:00,
2013-08-04 07:43:00,75.0,74.0,30.00,WNW,283,0.0,1.0,98,0.00,,,0.00,,2013-08-04 12:43:00,
2013-08-04 07:52:00,76.0,75.0,30.01,WNW,283,0.0,1.0,98,0.00,,,0.00,,2013-08-04 12:52:00,
2013-08-04 08:02:00,76.0,75.0,30.01,WNW,283,0.0,1.0,98,0.00,,,0.00,,2013-08-04 13:02:00,
2013-08-04 08:22:00,78.0,76.0,30.01,WNW,285,1.0,4.0,95,0.00,,,0.00,,2013-08-04 13:22:00,
2013-08-04 08:32:00,78.0,76.0,30.01,WNW,285,1.0,4.0,95,0.00,,,0.00,,2013-08-04 13:32:00,
2013-08-04 08:43:00,79.0,77.0,30.01,WNW,283,2.0,5.0,93,0.00,,,0.00,,2013-08-04 13:43:00,
2013-08-04 08:52:00,79.0,76.0,30.01,WSW,255,2.0,7.0,91,0.00,,,0.00,,2013-08-04 13:52:00,
2013-08-04 09:02:00,79.0,76.0,30.01,WSW,255,2.0,7.0,91,0.00,,,0.00,,2013-08-04 14:02:00,
2013-08-04 09:12:00,81.0,77.0,30.01,West,278,3.0,5.0,89,0.00,,,0.00,,2013-08-04 14:12:00,
2013-08-04 09:22:00,82.0,77.0,30.01,West,279,4.0,7.0,86,0.00,,,0.00,,2013-08-04 14:22:00,
2013-08-04 09:32:00,82.0,77.0,30.01,West,279,4.0,7.0,86,0.00,,,0.00,,2013-08-04 14:32:00,
2013-08-04 09:43:00,83.0,78.0,30.01,West,275,2.0,7.0,86,0.00,,,0.00,,2013-08-04 14:43:00,
2013-08-04 09:53:00,84.0,78.0,30.01,NW,316,1.0,7.0,82,0.00,,,0.00,,2013-08-04 14:53:00,
2013-08-04 10:02:00,84.0,78.0,30.01,NW,316,1.0,7.0,82,0.00,,,0.00,,2013-08-04 15:02:00,
2013-08-04 10:12:00,85.0,77.0,30.01,West,280,5.0,8.0,77,0.00,,,0.00,,2013-08-04 15:12:00,
2013-08-04 10:22:00,86.0,78.0,30.01,West,277,0.0,6.0,78,0.00,,,0.00,,2013-08-04 15:22:00,
2013-08-04 10:32:00,86.0,78.0,30.01,West,277,0.0,6.0,78,0.00,,,0.00,,2013-08-04 15:32:00,
2013-08-04 10:43:00,87.0,78.0,30.01,West,265,2.0,8.0,74,0.00,,,0.00,,2013-08-04 15:43:00,
2013-08-04 10:53:00,87.0,78.0,30.01,WSW,257,4.0,10.0,75,0.00,,,0.00,,2013-08-04 15:53:00,
2013-08-04 11:02:00,87.0,78.0,30.01,WSW,257,4.0,10.0,75,0.00,,,0.00,,2013-08-04 16:02:00,
2013-08-04 11:12:00,88.0,78.0,30.01,WSW,248,4.0,9.0,72,0.00,,,0.00,,2013-08-04 16:12:00,
2013-08-04 11:22:00,88.0,78.0,30.01,WNW,288,4.0,9.0,72,0.00,,,0.00,,2013-08-04 16:22:00,
2013-08-04 11:32:00,88.0,78.0,30.01,WNW,288,4.0,9.0,72,0.00,,,0.00,,2013-08-04 16:32:00,
2013-08-04 11:42:00,88.0,77.0,30.01,WNW,293,2.0,8.0,71,0.00,,,0.00,,2013-08-04 16:42:00,
2013-08-04 11:53:00,89.0,79.0,30.00,WNW,295,2.0,7.0,72,0.00,,,0.00,,2013-08-04 16:53:00,
2013-08-04 12:02:00,89.0,79.0,30.00,WNW,295,2.0,7.0,72,0.00,,,0.00,,2013-08-04 17:02:00,
2013-08-04 12:12:00,89.0,78.0,30.00,West,280,4.0,10.0,70,0.00,,,0.00,,2013-08-04 17:12:00,
2013-08-04 12:22:00,90.0,79.0,29.99,West,260,2.0,7.0,70,0.00,,,0.00,,2013-08-04 17:22:00,
2013-08-04 12:32:00,90.0,79.0,29.99,West,260,2.0,7.0,70,0.00,,,0.00,,2013-08-04 17:32:00,
2013-08-04 12:43:00,89.0,78.0,29.99,West,267,4.0,8.0,70,0.00,,,0.00,,2013-08-04 17:43:00,
2013-08-04 12:53:00,89.0,78.0,29.98,WSW,250,3.0,7.0,71,0.00,,,0.00,,2013-08-04 17:53:00,
2013-08-04 13:02:00,89.0,78.0,29.98,WSW,250,3.0,7.0,71,0.00,,,0.00,,2013-08-04 18:02:00,
2013-08-04 13:12:00,89.0,77.0,29.98,West,277,4.0,8.0,68,0.00,,,0.00,,2013-08-04 18:12:00,
2013-08-04 13:23:00,90.0,77.0,29.97,WNW,290,4.0,7.0,66,0.00,,,0.00,,2013-08-04 18:23:00,
2013-08-04 13:33:00,90.0,77.0,29.97,WNW,290,4.0,7.0,66,0.00,,,0.00,,2013-08-04 18:33:00,
2013-08-04 13:43:00,91.0,79.0,29.96,West,281,4.0,10.0,69,0.00,,,0.00,,2013-08-04 18:43:00,
2013-08-04 13:52:00,90.0,77.0,29.96,WNW,283,3.0,9.0,66,0.00,,,0.00,,2013-08-04 18:52:00,
2013-08-04 14:02:00,90.0,77.0,29.96,WNW,283,3.0,9.0,66,0.00,,,0.00,,2013-08-04 19:02:00,
2013-08-04 14:12:00,91.0,78.0,29.96,WNW,284,1.0,10.0,66,0.00,,,0.00,,2013-08-04 19:12:00,
2013-08-04 14:22:00,90.0,77.0,29.95,WSW,256,5.0,9.0,66,0.00,,,0.00,,2013-08-04 19:22:00,
2013-08-04 14:32:00,90.0,77.0,29.95,WSW,256,5.0,9.0,66,0.00,,,0.00,,2013-08-04 19:32:00,
2013-08-04 14:44:00,91.0,78.0,29.93,WNW,297,4.0,8.0,66,0.00,,,0.00,,2013-08-04 19:44:00,
2013-08-04 14:52:00,92.0,79.0,29.93,WSW,257,1.0,7.0,66,0.00,,,0.00,,2013-08-04 19:52:00,
2013-08-04 15:02:00,92.0,79.0,29.93,WSW,257,1.0,7.0,66,0.00,,,0.00,,2013-08-04 20:02:00,
2013-08-04 15:12:00,92.0,77.0,29.93,WNW,302,3.0,8.0,61,0.00,,,0.00,,2013-08-04 20:12:00,
2013-08-04 15:22:00,92.0,79.0,29.92,WSW,252,4.0,10.0,65,0.00,,,0.00,,2013-08-04 20:22:00,
2013-08-04 15:33:00,92.0,79.0,29.92,WSW,252,4.0,10.0,65,0.00,,,0.00,,2013-08-04 20:33:00,
2013-08-04 15:43:00,92.0,77.0,29.91,West,269,5.0,10.0,62,0.00,,,0.00,,2013-08-04 20:43:00,
2013-08-04 15:53:00,92.0,77.0,29.91,West,259,5.0,9.0,61,0.00,,,0.00,,2013-08-04 20:53:00,
2013-08-04 16:02:00,92.0,77.0,29.91,West,259,5.0,9.0,61,0.00,,,0.00,,2013-08-04 21:02:00,
2013-08-04 16:12:00,91.0,79.0,29.91,West,259,0.0,7.0,68,0.00,,,0.00,,2013-08-04 21:12:00,
2013-08-04 16:22:00,90.0,79.0,29.92,WNW,286,0.0,5.0,71,0.00,,,0.00,,2013-08-04 21:22:00,
2013-08-04 16:32:00,90.0,79.0,29.92,WNW,286,0.0,5.0,71,0.00,,,0.00,,2013-08-04 21:32:00,
2013-08-04 16:43:00,90.0,79.0,29.92,West,276,1.0,5.0,70,0.00,,,0.00,,2013-08-04 21:43:00,
2013-08-04 16:52:00,92.0,80.0,29.91,WNW,300,0.0,4.0,68,0.00,,,0.00,,2013-08-04 21:52:00,
2013-08-04 17:02:00,92.0,80.0,29.91,WNW,300,0.0,4.0,68,0.00,,,0.00,,2013-08-04 22:02:00,
2013-08-04 17:12:00,90.0,79.0,29.91,East,81,0.0,2.0,71,0.00,,,0.00,,2013-08-04 22:12:00,
2013-08-04 17:22:00,89.0,78.0,29.91,WNW,283,0.0,3.0,70,0.00,,,0.00,,2013-08-04 22:22:00,
2013-08-04 17:32:00,89.0,78.0,29.91,WNW,283,0.0,3.0,70,0.00,,,0.00,,2013-08-04 22:32:00,
2013-08-04 17:43:00,88.0,79.0,29.92,WNW,290,0.0,3.0,74,0.00,,,0.00,,2013-08-04 22:43:00,
2013-08-04 17:53:00,86.0,78.0,29.92,WSW,250,3.0,11.0,76,0.00,,,0.00,,2013-08-04 22:53:00,
2013-08-04 18:02:00,86.0,78.0,29.92,WSW,250,3.0,11.0,76,0.00,,,0.00,,2013-08-04 23:02:00,
2013-08-04 18:12:00,82.0,76.0,29.93,NW,308,1.0,5.0,81,0.00,,,0.00,,2013-08-04 23:12:00,
2013-08-04 18:22:00,81.0,75.0,29.94,West,271,4.0,14.0,83,0.01,,,0.01,,2013-08-04 23:22:00,
2013-08-04 18:32:00,81.0,75.0,29.94,West,271,4.0,14.0,83,0.01,,,0.01,,2013-08-04 23:32:00,
2013-08-04 18:43:00,79.0,75.0,29.92,West,264,0.0,1.0,89,0.05,,,0.05,,2013-08-04 23:43:00,
2013-08-04 18:53:00,79.0,76.0,29.92,NE,54,0.0,1.0,92,0.05,,,0.05,,2013-08-04 23:53:00,
2013-08-04 19:02:00,79.0,76.0,29.92,NE,54,0.0,1.0,92,0.05,,,0.05,,2013-08-05 00:02:00,
2013-08-04 19:12:00,79.0,77.0,29.93,West,273,0.0,1.0,94,0.05,,,0.05,,2013-08-05 00:12:00,
2013-08-04 19:22:00,79.0,77.0,29.92,West,273,0.0,0.0,94,0.03,,,0.05,,2013-08-05 00:22:00,
2013-08-04 19:33:00,79.0,77.0,29.92,West,273,0.0,0.0,94,0.03,,,0.05,,2013-08-05 00:33:00,
2013-08-04 19:42:00,78.0,76.0,29.91,West,273,0.0,0.0,94,0.00,,,0.05,,2013-08-05 00:42:00,
2013-08-04 19:52:00,78.0,77.0,29.93,West,263,0.0,1.0,96,0.00,,,0.05,,2013-08-05 00:52:00,
2013-08-04 20:02:00,78.0,77.0,29.93,West,263,0.0,1.0,96,0.00,,,0.05,,2013-08-05 01:02:00,
2013-08-04 20:12:00,78.0,76.0,29.94,SW,232,0.0,0.0,95,0.00,,,0.05,,2013-08-05 01:12:00,
2013-08-04 20:22:00,78.0,76.0,29.95,NE,43,0.0,1.0,95,0.00,,,0.05,,2013-08-05 01:22:00,
2013-08-04 20:33:00,78.0,76.0,29.95,NE,43,0.0,1.0,95,0.00,,,0.05,,2013-08-05 01:33:00,
2013-08-04 20:43:00,77.0,75.0,29.95,NE,43,0.0,0.0,95,0.00,,,0.05,,2013-08-05 01:43:00,
2013-08-04 20:52:00,77.0,76.0,29.96,NE,43,0.0,0.0,96,0.00,,,0.05,,2013-08-05 01:52:00,
2013-08-04 21:02:00,77.0,76.0,29.96,NE,43,0.0,0.0,96,0.00,,,0.05,,2013-08-05 02:02:00,
2013-08-04 21:12:00,76.0,75.0,29.97,NE,43,0.0,0.0,96,0.00,,,0.05,,2013-08-05 02:12:00,
2013-08-04 21:22:00,76.0,75.0,29.98,NE,42,0.0,0.0,96,0.00,,,0.05,,2013-08-05 02:22:00,
2013-08-04 21:33:00,76.0,75.0,29.98,NE,42,0.0,0.0,96,0.00,,,0.05,,2013-08-05 02:33:00,
2013-08-04 21:43:00,76.0,75.0,29.98,NNW,345,0.0,1.0,97,0.00,,,0.05,,2013-08-05 02:43:00,
2013-08-04 21:53:00,77.0,76.0,29.98,WSW,238,0.0,1.0,96,0.00,,,0.05,,2013-08-05 02:53:00,
2013-08-04 22:02:00,77.0,76.0,29.98,WSW,238,0.0,1.0,96,0.00,,,0.05,,2013-08-05 03:02:00,
2013-08-04 22:12:00,77.0,76.0,29.97,West,269,0.0,0.0,96,0.00,,,0.05,,2013-08-05 03:12:00,
2013-08-04 22:22:00,77.0,76.0,29.98,West,267,0.0,1.0,96,0.00,,,0.05,,2013-08-05 03:22:00,
2013-08-04 22:32:00,77.0,76.0,29.98,West,267,0.0,1.0,96,0.00,,,0.05,,2013-08-05 03:32:00,
2013-08-04 22:42:00,77.0,76.0,29.98,WNW,284,0.0,1.0,96,0.00,,,0.05,,2013-08-05 03:42:00,
2013-08-04 22:53:00,76.0,75.0,29.98,West,263,0.0,1.0,96,0.00,,,0.05,,2013-08-05 03:53:00,
2013-08-04 23:02:00,76.0,75.0,29.98,West,263,0.0,1.0,96,0.00,,,0.05,,2013-08-05 04:02:00,
2013-08-04 23:12:00,76.0,75.0,29.97,West,266,0.0,1.0,96,0.00,,,0.05,,2013-08-05 04:12:00,
2013-08-04 23:22:00,76.0,75.0,29.97,West,266,0.0,1.0,96,0.00,,,0.05,,2013-08-05 04:22:00,
2013-08-04 23:32:00,76.0,75.0,29.98,West,264,0.0,1.0,97,0.00,,,0.05,,2013-08-05 04:32:00,
2013-08-04 23:43:00,76.0,75.0,29.98,West,264,0.0,1.0,97,0.00,,,0.05,,2013-08-05 04:43:00,
2013-08-04 23:52:00,76.0,75.0,29.98,West,270,0.0,1.0,97,0.00,,,0.05,,2013-08-05 04:52:00,